Time;durP1;ratioP1;P1;durP2;ratioP2;P2;SDS_P1;SDS_P2;PMS_P1;PMS_P2;Temp;Humidity;BMP_temperature;BMP_pressure;BME280_temperature;BME280_humidity;BME280_pressure;Samples;Min_cycle;Max_cycle;Signal;HPM_P1;HPM_P2
2022/01/31 00:00:11;;;;;;;22.57;6.57;;;4.20;1.00;;;;;;4941353;28;20218;-64
2022/01/31 00:02:42;;;;;;;26.67;6.00;;;4.20;1.00;;;;;;4951954;28;20522;-64
2022/01/31 00:05:10;;;;;;;19.70;6.23;;;4.20;1.00;;;;;;4933127;28;20294;-64
2022/01/31 00:07:37;;;;;;;21.47;5.77;;;4.30;1.00;;;;;;4938333;28;20671;-63
2022/01/31 00:10:08;;;;;;;24.33;5.97;;;4.30;1.00;;;;;;4917434;28;20294;-63
2022/01/31 00:12:52;;;;;;;18.83;5.73;;;4.30;1.00;;;;;;4932765;28;20250;-63
2022/01/31 00:15:22;;;;;;;14.13;5.47;;;4.20;1.00;;;;;;4957604;28;20222;-63
2022/01/31 00:17:49;;;;;;;21.17;5.70;;;4.30;1.00;;;;;;4934300;28;20223;-63
2022/01/31 00:20:16;;;;;;;22.27;6.33;;;4.30;1.00;;;;;;4931499;28;20203;-63
2022/01/31 00:22:43;;;;;;;16.17;5.43;;;4.30;1.00;;;;;;4926933;28;20905;-64
2022/01/31 00:25:10;;;;;;;17.77;5.33;;;4.40;1.00;;;;;;4932578;28;20309;-64
2022/01/31 00:27:39;;;;;;;21.23;6.30;;;4.40;1.00;;;;;;4949874;28;20233;-63
2022/01/31 00:30:07;;;;;;;20.00;6.20;;;4.40;1.00;;;;;;4950740;28;20237;-64
2022/01/31 00:32:35;;;;;;;18.70;5.73;;;4.40;1.00;;;;;;4933958;28;20210;-64
2022/01/31 00:35:03;;;;;;;19.20;5.53;;;4.40;1.00;;;;;;4947269;28;20265;-63
2022/01/31 00:37:32;;;;;;;21.33;6.00;;;4.40;1.00;;;;;;4932299;28;20586;-63
2022/01/31 00:39:59;;;;;;;20.67;5.20;;;4.40;1.00;;;;;;4915643;28;20210;-64
2022/01/31 00:42:28;;;;;;;20.17;5.97;;;4.40;1.00;;;;;;4917341;28;20578;-63
2022/01/31 00:45:09;;;;;;;17.27;5.67;;;4.30;1.00;;;;;;4934705;28;20282;-63
2022/01/31 00:47:43;;;;;;;18.77;5.37;;;4.40;1.00;;;;;;4933981;28;20293;-63
2022/01/31 00:50:12;;;;;;;19.80;6.90;;;4.30;1.00;;;;;;4933765;28;20241;-63
2022/01/31 00:52:41;;;;;;;20.27;5.20;;;4.40;1.00;;;;;;4950182;28;20214;-63
2022/01/31 00:55:10;;;;;;;15.10;5.47;;;4.40;1.00;;;;;;4916227;28;20674;-64
2022/01/31 00:57:37;;;;;;;24.63;5.50;;;4.40;1.00;;;;;;4932457;28;20736;-63
2022/01/31 01:00:10;;;;;;;11.90;5.00;;;4.40;1.00;;;;;;5016166;28;20215;-66
2022/01/31 01:02:38;;;;;;;18.20;5.27;;;4.40;1.00;;;;;;4917266;28;20314;-64
2022/01/31 01:05:05;;;;;;;21.03;4.70;;;4.50;1.00;;;;;;4935863;28;20210;-64
2022/01/31 01:07:32;;;;;;;11.77;4.60;;;4.50;1.00;;;;;;4934501;28;20246;-64
2022/01/31 01:10:00;;;;;;;11.47;4.20;;;4.60;1.00;;;;;;4919094;28;20226;-65
2022/01/31 01:12:26;;;;;;;16.30;4.93;;;4.50;1.00;;;;;;4932579;28;20215;-63
2022/01/31 01:14:53;;;;;;;12.53;4.40;;;4.60;1.00;;;;;;4918400;28;20282;-63
2022/01/31 01:17:20;;;;;;;13.57;4.23;;;4.60;1.00;;;;;;4941172;28;20563;-64
2022/01/31 01:19:48;;;;;;;16.77;4.77;;;4.60;1.00;;;;;;4926288;28;20337;-65
2022/01/31 01:22:17;;;;;;;17.37;4.33;;;4.50;1.00;;;;;;4942962;28;20203;-63
2022/01/31 01:24:44;;;;;;;17.83;5.30;;;4.60;1.00;;;;;;4924699;28;20219;-65
2022/01/31 01:27:14;;;;;;;14.10;4.07;;;4.60;1.00;;;;;;4935492;28;20716;-63
2022/01/31 01:29:41;;;;;;;12.97;3.90;;;4.50;1.00;;;;;;4927563;28;20245;-63
2022/01/31 01:32:10;;;;;;;10.90;3.67;;;4.60;1.00;;;;;;4969598;28;20585;-63
2022/01/31 01:34:38;;;;;;;13.10;4.07;;;4.50;1.00;;;;;;4972671;28;20207;-64
2022/01/31 01:37:05;;;;;;;12.07;4.00;;;4.60;1.00;;;;;;4933570;28;20210;-63
2022/01/31 01:39:35;;;;;;;15.63;4.43;;;4.50;1.00;;;;;;4934097;28;20233;-63
2022/01/31 01:42:02;;;;;;;13.20;3.77;;;4.60;1.00;;;;;;4941488;28;20662;-65
2022/01/31 01:44:45;;;;;;;13.70;3.90;;;4.60;1.00;;;;;;4925117;28;20221;-65
2022/01/31 01:47:22;;;;;;;16.30;4.53;;;4.60;1.00;;;;;;4996468;28;20230;-64
2022/01/31 01:49:53;;;;;;;14.17;3.70;;;4.60;1.00;;;;;;4946527;28;20567;-64
2022/01/31 01:52:24;;;;;;;11.53;4.27;;;4.70;1.00;;;;;;4950962;28;20335;-65
2022/01/31 01:54:52;;;;;;;16.73;4.07;;;4.70;1.00;;;;;;4915489;28;20658;-63
2022/01/31 01:57:22;;;;;;;16.03;3.87;;;4.70;1.00;;;;;;4950984;28;20226;-64
2022/01/31 01:59:56;;;;;;;12.77;4.30;;;4.60;1.00;;;;;;4996642;28;20202;-63
2022/01/31 02:02:45;;;;;;;12.23;4.07;;;4.70;1.00;;;;;;4949470;28;20229;-64
2022/01/31 02:05:15;;;;;;;9.03;3.50;;;4.70;1.00;;;;;;4915468;28;20336;-63
2022/01/31 02:07:43;;;;;;;14.43;4.23;;;4.70;1.00;;;;;;4910147;28;20641;-64
2022/01/31 02:10:16;;;;;;;17.77;5.10;;;4.70;1.00;;;;;;4910735;28;20208;-65
2022/01/31 02:13:06;;;;;;;17.30;4.23;;;4.70;1.00;;;;;;4934823;28;20207;-64
2022/01/31 02:15:59;;;;;;;13.20;3.80;;;4.70;1.00;;;;;;4938050;28;20577;-63
2022/01/31 02:18:37;;;;;;;11.83;3.73;;;4.70;1.00;;;;;;4931288;28;20199;-63
2022/01/31 02:21:04;;;;;;;12.80;3.47;;;4.70;1.00;;;;;;4925295;28;20215;-64
2022/01/31 02:23:36;;;;;;;12.17;3.73;;;4.70;1.00;;;;;;4924842;28;20699;-65
2022/01/31 02:26:22;;;;;;;14.23;3.60;;;4.70;1.00;;;;;;4930562;28;20669;-64
2022/01/31 02:28:52;;;;;;;11.03;3.57;;;4.70;1.00;;;;;;4928185;28;20230;-65
2022/01/31 02:31:23;;;;;;;12.63;3.50;;;4.70;1.00;;;;;;4914421;28;20235;-64
2022/01/31 02:33:50;;;;;;;12.20;4.20;;;4.80;1.00;;;;;;4910752;28;20212;-64
2022/01/31 02:36:17;;;;;;;8.87;3.17;;;4.80;1.00;;;;;;4931786;28;20195;-64
2022/01/31 02:38:44;;;;;;;16.37;3.47;;;4.80;1.00;;;;;;4928176;28;20200;-64
2022/01/31 02:41:11;;;;;;;12.10;3.40;;;4.80;1.00;;;;;;4912343;28;20199;-64
2022/01/31 02:43:38;;;;;;;18.03;3.70;;;4.80;1.00;;;;;;4930082;28;20235;-63
2022/01/31 02:46:12;;;;;;;12.70;3.67;;;4.80;1.00;;;;;;4926008;28;20275;-63
2022/01/31 02:48:39;;;;;;;15.20;4.40;;;4.80;1.00;;;;;;4929844;28;20200;-64
2022/01/31 02:51:10;;;;;;;15.03;3.37;;;4.80;1.00;;;;;;4927684;28;20650;-64
2022/01/31 02:53:41;;;;;;;13.80;3.37;;;4.70;1.00;;;;;;4929815;28;20188;-64
2022/01/31 02:56:08;;;;;;;15.27;4.13;;;4.70;99.90;;;;;;4939939;28;20223;-65
2022/01/31 02:58:36;;;;;;;16.93;4.00;;;4.60;99.90;;;;;;4909583;28;20203;-65
2022/01/31 03:01:05;;;;;;;13.67;3.73;;;4.50;99.90;;;;;;4948429;28;20212;-64
2022/01/31 03:03:45;;;;;;;12.90;3.33;;;4.50;1.00;;;;;;4927166;28;20187;-64
2022/01/31 03:06:12;;;;;;;9.43;3.73;;;4.30;1.00;;;;;;4927631;28;20288;-63
2022/01/31 03:08:39;;;;;;;15.60;4.40;;;4.20;1.00;;;;;;4916693;28;20745;-63
2022/01/31 03:11:32;;;;;;;10.00;3.10;;;4.20;1.00;;;;;;4919763;28;20232;-63
2022/01/31 03:14:09;;;;;;;11.27;3.90;;;4.20;1.00;;;;;;4910887;28;20214;-63
2022/01/31 03:16:44;;;;;;;13.00;3.17;;;4.20;1.00;;;;;;4906879;28;20330;-62
2022/01/31 03:19:18;;;;;;;8.37;3.17;;;4.20;1.00;;;;;;4909781;29;20208;-63
2022/01/31 03:21:51;;;;;;;13.10;4.07;;;4.10;1.00;;;;;;4931933;28;20694;-63
2022/01/31 03:24:20;;;;;;;18.30;4.33;;;4.00;1.00;;;;;;4917178;28;20331;-63
2022/01/31 03:26:47;;;;;;;10.90;4.00;;;3.90;1.00;;;;;;4914503;28;20232;-63
2022/01/31 03:29:16;;;;;;;11.80;3.63;;;3.90;18.20;;;;;;4917728;28;20208;-63
2022/01/31 03:31:45;;;;;;;10.03;4.50;;;3.90;99.90;;;;;;4934203;28;20227;-63
2022/01/31 03:34:15;;;;;;;9.90;3.93;;;3.80;99.90;;;;;;4896822;28;20197;-63
2022/01/31 03:36:43;;;;;;;14.20;3.97;;;3.70;99.90;;;;;;4909412;28;20287;-63
2022/01/31 03:39:15;;;;;;;12.60;4.03;;;3.70;99.90;;;;;;4912648;28;20196;-63
2022/01/31 03:41:42;;;;;;;10.30;4.07;;;3.70;99.90;;;;;;4904613;28;20279;-63
2022/01/31 03:44:09;;;;;;;17.33;4.10;;;3.60;99.90;;;;;;4923680;28;20205;-62
2022/01/31 03:46:38;;;;;;;12.97;4.50;;;3.60;1.00;;;;;;4922839;28;20203;-62
2022/01/31 03:49:05;;;;;;;16.00;5.80;;;3.50;1.00;;;;;;4906662;28;20270;-62
2022/01/31 03:51:39;;;;;;;12.23;4.43;;;3.40;1.00;;;;;;4906630;28;20310;-63
2022/01/31 03:54:09;;;;;;;12.27;4.47;;;3.40;1.00;;;;;;4920437;28;20216;-63
2022/01/31 03:56:39;;;;;;;12.83;4.27;;;3.30;1.00;;;;;;4935214;28;20208;-63
2022/01/31 03:59:34;;;;;;;12.50;4.33;;;3.20;1.00;;;;;;4921094;28;20571;-63
2022/01/31 04:02:04;;;;;;;8.63;4.03;;;3.10;1.00;;;;;;4921191;28;20563;-63
2022/01/31 04:04:34;;;;;;;7.17;3.70;;;3.10;1.00;;;;;;4921746;28;20319;-63
2022/01/31 04:07:04;;;;;;;7.90;3.50;;;3.00;1.00;;;;;;4921644;28;20276;-63
2022/01/31 04:09:31;;;;;;;7.83;3.97;;;3.00;1.00;;;;;;4935714;28;20771;-63
2022/01/31 04:11:57;;;;;;;7.87;3.60;;;3.00;1.00;;;;;;4920626;28;20220;-63
2022/01/31 04:14:27;;;;;;;6.37;4.10;;;3.00;1.00;;;;;;4924431;28;20200;-63
2022/01/31 04:16:55;;;;;;;8.43;3.97;;;2.90;1.00;;;;;;4923924;28;20205;-63
2022/01/31 04:19:23;;;;;;;7.47;3.47;;;2.90;1.00;;;;;;4922505;28;20204;-64
2022/01/31 04:21:51;;;;;;;7.60;4.07;;;2.80;1.00;;;;;;4928810;28;20214;-63
2022/01/31 04:24:24;;;;;;;11.07;4.17;;;2.80;1.00;;;;;;4922716;28;20616;-63
2022/01/31 04:26:59;;;;;;;7.23;3.53;;;2.90;1.00;;;;;;4944157;28;20671;-64
2022/01/31 04:29:30;;;;;;;8.70;3.90;;;2.80;1.00;;;;;;4939008;28;20199;-63
2022/01/31 04:31:57;;;;;;;11.13;4.57;;;2.80;1.00;;;;;;4944494;28;20415;-63
2022/01/31 04:34:24;;;;;;;7.57;4.90;;;2.80;6.90;;;;;;4925429;28;20219;-63
2022/01/31 04:36:51;;;;;;;5.53;4.03;;;2.80;65.90;;;;;;4923714;28;20208;-64
2022/01/31 04:39:19;;;;;;;7.80;4.40;;;2.80;99.90;;;;;;4923526;28;20207;-63
2022/01/31 04:41:48;;;;;;;7.87;4.40;;;2.80;79.70;;;;;;4919868;28;21033;-64
2022/01/31 04:44:17;;;;;;;7.47;4.30;;;2.80;1.00;;;;;;4928050;28;20231;-63
2022/01/31 04:46:49;;;;;;;9.33;4.97;;;2.80;99.90;;;;;;4923672;28;20219;-63
2022/01/31 04:49:16;;;;;;;7.57;4.63;;;2.80;59.40;;;;;;4917689;28;20200;-63
2022/01/31 04:51:43;;;;;;;5.77;4.60;;;2.80;99.90;;;;;;4917797;28;20225;-64
2022/01/31 04:54:10;;;;;;;8.20;5.10;;;2.80;99.90;;;;;;4932259;28;20211;-63
2022/01/31 04:56:40;;;;;;;8.80;4.97;;;2.70;99.90;;;;;;4919023;28;20204;-63
2022/01/31 04:59:11;;;;;;;8.07;5.03;;;2.80;99.90;;;;;;4921295;28;20556;-63
2022/01/31 05:01:41;;;;;;;9.40;5.27;;;2.90;99.90;;;;;;4919494;28;20207;-63
2022/01/31 05:04:09;;;;;;;11.80;5.60;;;2.90;99.90;;;;;;4919373;28;20281;-63
2022/01/31 05:06:38;;;;;;;6.43;5.00;;;3.00;99.90;;;;;;4921001;28;20204;-63
2022/01/31 05:09:06;;;;;;;8.63;5.93;;;3.00;99.90;;;;;;4941800;28;20721;-63
2022/01/31 05:11:33;;;;;;;11.27;5.63;;;3.10;99.90;;;;;;4933630;28;20207;-63
2022/01/31 05:14:00;;;;;;;10.80;5.93;;;3.20;1.00;;;;;;4934524;28;20214;-63
2022/01/31 05:16:27;;;;;;;11.27;5.53;;;3.20;1.00;;;;;;4947695;28;20192;-64
2022/01/31 05:19:01;;;;;;;10.50;5.93;;;3.40;1.00;;;;;;4947977;28;20211;-63
2022/01/31 05:21:28;;;;;;;9.87;6.40;;;3.40;1.00;;;;;;4949292;28;20210;-63
2022/01/31 05:23:55;;;;;;;12.53;6.83;;;3.40;1.00;;;;;;4950231;28;20211;-63
2022/01/31 05:26:22;;;;;;;12.20;7.53;;;3.50;1.00;;;;;;4932173;28;20214;-63
2022/01/31 05:28:49;;;;;;;11.17;8.07;;;3.60;1.00;;;;;;4948288;28;20286;-63
2022/01/31 05:31:16;;;;;;;16.87;10.00;;;3.70;1.00;;;;;;4948715;28;20541;-63
2022/01/31 05:33:43;;;;;;;15.93;8.80;;;3.70;1.00;;;;;;4931122;28;20686;-63
2022/01/31 05:36:10;;;;;;;15.10;10.23;;;3.70;15.30;;;;;;4950406;28;20203;-63
2022/01/31 05:38:39;;;;;;;15.60;9.63;;;3.90;99.90;;;;;;4930323;28;20221;-63
2022/01/31 05:41:11;;;;;;;17.87;10.57;;;3.90;99.90;;;;;;4938257;28;20219;-63
2022/01/31 05:43:38;;;;;;;20.77;11.90;;;4.00;99.90;;;;;;4948336;28;20211;-63
2022/01/31 05:46:05;;;;;;;21.13;12.63;;;4.00;99.90;;;;;;4933358;28;20203;-64
2022/01/31 05:48:33;;;;;;;23.37;13.07;;;4.00;99.90;;;;;;4948022;28;20211;-63
2022/01/31 05:51:09;;;;;;;24.63;13.90;;;4.10;1.00;;;;;;4946178;28;20366;-63
2022/01/31 05:53:35;;;;;;;18.23;13.07;;;4.20;1.00;;;;;;4949876;28;20801;-63
2022/01/31 05:56:05;;;;;;;29.57;15.57;;;4.30;1.00;;;;;;4931850;28;20732;-64
2022/01/31 05:58:32;;;;;;;23.03;13.93;;;4.40;1.00;;;;;;4935528;28;20222;-64
2022/01/31 06:00:58;;;;;;;22.10;14.30;;;4.40;99.90;;;;;;4928661;28;20211;-64
2022/01/31 06:03:30;;;;;;;24.40;14.20;;;4.50;99.90;;;;;;4955088;28;20535;-63
2022/01/31 06:05:57;;;;;;;24.93;16.83;;;4.50;99.90;;;;;;4972671;28;20226;-63
2022/01/31 06:08:27;;;;;;;22.07;12.10;;;4.50;99.90;;;;;;4994100;28;20270;-62
2022/01/31 06:10:56;;;;;;;17.97;11.93;;;4.50;99.90;;;;;;4915760;28;20293;-63
2022/01/31 06:13:29;;;;;;;21.30;10.90;;;4.50;99.90;;;;;;4931746;28;20231;-62
2022/01/31 06:15:56;;;;;;;16.90;10.50;;;4.60;99.90;;;;;;4997490;28;20218;-61
2022/01/31 06:18:23;;;;;;;22.23;10.17;;;4.60;99.90;;;;;;4926744;28;20222;-62
2022/01/31 06:20:50;;;;;;;19.27;10.43;;;4.60;99.90;;;;;;4925403;28;20231;-62
2022/01/31 06:23:17;;;;;;;18.40;13.17;;;4.60;99.90;;;;;;4932542;28;20217;-63
2022/01/31 06:25:48;;;;;;;18.27;11.17;;;4.60;99.90;;;;;;4932857;28;20758;-63
2022/01/31 06:28:18;;;;;;;15.10;8.53;;;4.70;99.90;;;;;;4923992;28;20441;-62
2022/01/31 06:30:45;;;;;;;6.77;3.87;;;4.60;39.30;;;;;;4941281;28;20477;-64
2022/01/31 06:33:16;;;;;;;4.50;2.70;;;4.20;99.90;;;;;;4930606;28;20633;-64
2022/01/31 06:35:47;;;;;;;10.03;6.53;;;3.90;99.90;;;;;;4946581;28;20234;-64
2022/01/31 06:38:16;;;;;;;14.77;9.00;;;4.00;1.00;;;;;;4928739;28;20293;-64
2022/01/31 06:40:43;;;;;;;26.70;14.70;;;4.10;1.00;;;;;;4933754;28;20305;-63
2022/01/31 06:43:10;;;;;;;12.83;7.20;;;4.10;1.00;;;;;;4933212;28;20265;-64
2022/01/31 06:45:37;;;;;;;18.77;6.03;;;4.20;99.90;;;;;;4913750;28;20558;-63
2022/01/31 06:48:05;;;;;;;12.47;6.53;;;4.20;99.90;;;;;;4915104;28;20512;-63
2022/01/31 06:50:32;;;;;;;13.27;5.30;;;4.10;99.90;;;;;;4949426;28;20697;-63
2022/01/31 06:53:01;;;;;;;11.83;5.07;;;4.10;99.90;;;;;;4931560;28;20758;-63
2022/01/31 06:55:33;;;;;;;14.57;5.17;;;4.00;99.90;;;;;;4938967;28;20269;-63
2022/01/31 06:58:04;;;;;;;12.90;5.03;;;4.00;1.00;;;;;;4956668;28;20199;-65
2022/01/31 07:00:31;;;;;;;11.10;4.43;;;4.10;1.00;;;;;;4922594;28;21198;-63
2022/01/31 07:03:00;;;;;;;6.57;4.20;;;4.10;1.00;;;;;;4917255;28;20308;-63
2022/01/31 07:05:27;;;;;;;8.83;4.83;;;4.20;1.00;;;;;;4942577;28;20863;-63
2022/01/31 07:07:56;;;;;;;14.00;5.03;;;4.20;99.90;;;;;;4942779;28;20244;-63
2022/01/31 07:10:23;;;;;;;14.07;4.67;;;4.20;99.90;;;;;;5005893;28;20287;-63
2022/01/31 07:12:54;;;;;;;12.83;4.60;;;4.30;99.90;;;;;;5012346;28;20225;-63
2022/01/31 07:15:21;;;;;;;11.40;3.93;;;4.30;99.90;;;;;;5009520;28;20736;-63
2022/01/31 07:17:48;;;;;;;11.87;4.43;;;4.40;70.80;;;;;;4990811;28;20292;-63
2022/01/31 07:20:23;;;;;;;10.77;4.13;;;4.40;1.00;;;;;;5006452;28;20224;-64
2022/01/31 07:23:00;;;;;;;14.70;5.17;;;4.50;1.00;;;;;;5008236;28;20204;-63
2022/01/31 07:25:36;;;;;;;10.97;4.03;;;4.50;1.00;;;;;;5007072;28;20192;-63
2022/01/31 07:28:11;;;;;;;14.20;4.67;;;4.50;77.30;;;;;;5007243;28;20209;-63
2022/01/31 07:30:40;;;;;;;11.90;3.93;;;4.50;99.90;;;;;;5004469;28;20200;-63
2022/01/31 07:33:16;;;;;;;12.83;4.77;;;4.60;35.80;;;;;;5020218;28;20236;-63
2022/01/31 07:35:46;;;;;;;10.50;3.70;;;4.60;1.00;;;;;;5024594;28;20687;-64
2022/01/31 07:38:14;;;;;;;9.90;4.30;;;4.70;1.00;;;;;;5003172;28;20200;-64
2022/01/31 07:40:41;;;;;;;6.23;3.13;;;4.70;1.00;;;;;;5004375;28;20214;-64
2022/01/31 07:43:08;;;;;;;11.23;3.30;;;4.70;1.00;;;;;;5001809;28;20225;-63
2022/01/31 07:45:35;;;;;;;6.73;2.73;;;4.70;99.90;;;;;;5003596;28;20271;-63
2022/01/31 07:48:03;;;;;;;7.50;2.47;;;4.70;99.90;;;;;;5005408;28;20201;-64
2022/01/31 07:50:32;;;;;;;12.30;3.50;;;4.70;99.90;;;;;;5005077;28;20207;-64
2022/01/31 07:52:59;;;;;;;7.73;2.90;;;4.60;99.90;;;;;;5005114;28;20302;-64
2022/01/31 07:55:26;;;;;;;13.87;3.50;;;4.70;99.90;;;;;;5004715;28;20193;-63
2022/01/31 07:57:55;;;;;;;4.43;2.60;;;4.70;99.90;;;;;;4990636;28;20569;-63
2022/01/31 08:00:42;;;;;;;4.53;2.30;;;4.70;99.90;;;;;;4992025;28;20262;-64
2022/01/31 08:03:09;;;;;;;6.07;2.20;;;4.60;99.90;;;;;;5004751;28;20209;-64
2022/01/31 08:05:36;;;;;;;6.90;2.20;;;4.60;99.90;;;;;;5004328;28;20209;-63
2022/01/31 08:08:03;;;;;;;7.40;2.60;;;4.60;99.90;;;;;;4996050;28;20301;-65
2022/01/31 08:10:35;;;;;;;6.03;2.50;;;4.60;99.90;;;;;;4927063;28;20296;-65
2022/01/31 08:13:04;;;;;;;5.57;2.50;;;4.60;99.90;;;;;;4915630;28;20339;-65
2022/01/31 08:15:33;;;;;;;10.23;3.00;;;4.60;99.90;;;;;;4934767;28;20206;-65
2022/01/31 08:18:00;;;;;;;6.57;2.70;;;4.50;99.90;;;;;;4921941;28;20214;-63
2022/01/31 08:20:27;;;;;;;5.43;2.70;;;4.60;99.90;;;;;;4929458;28;20302;-63
2022/01/31 08:22:55;;;;;;;6.67;2.47;;;4.60;99.90;;;;;;4917816;28;20207;-63
2022/01/31 08:25:26;;;;;;;6.23;2.40;;;4.60;99.90;;;;;;4986141;28;20305;-63
2022/01/31 08:28:00;;;;;;;5.80;2.40;;;4.60;99.90;;;;;;4926387;28;20206;-66
2022/01/31 08:30:37;;;;;;;6.10;3.20;;;4.50;99.90;;;;;;4994424;28;20210;-65
2022/01/31 08:33:14;;;;;;;8.73;2.97;;;4.50;99.90;;;;;;4924949;28;20211;-65
2022/01/31 08:35:48;;;;;;;5.30;2.43;;;4.50;99.90;;;;;;4929771;28;20246;-63
2022/01/31 08:38:16;;;;;;;6.33;2.10;;;4.60;99.90;;;;;;4924969;28;20693;-63
2022/01/31 08:40:44;;;;;;;5.00;2.17;;;4.60;99.90;;;;;;4923928;28;20617;-63
2022/01/31 08:43:16;;;;;;;5.47;2.20;;;4.50;99.90;;;;;;4930239;28;20250;-63
2022/01/31 08:45:44;;;;;;;4.47;2.00;;;4.40;69.70;;;;;;4931011;28;20261;-63
2022/01/31 08:48:15;;;;;;;8.87;2.20;;;4.50;99.90;;;;;;4943555;28;20314;-65
2022/01/31 08:50:43;;;;;;;5.37;2.30;;;4.50;99.90;;;;;;4935426;28;20299;-64
2022/01/31 08:53:10;;;;;;;7.37;2.67;;;4.50;99.90;;;;;;4934547;28;20265;-64
2022/01/31 08:55:36;;;;;;;8.83;5.63;;;4.50;99.90;;;;;;4931199;28;20766;-64
2022/01/31 08:58:07;;;;;;;9.13;3.90;;;4.50;99.90;;;;;;4924494;28;20304;-65
2022/01/31 09:00:34;;;;;;;9.23;4.20;;;4.50;99.90;;;;;;4943892;28;20295;-64
2022/01/31 09:03:21;;;;;;;8.60;5.03;;;4.60;99.90;;;;;;4929075;28;20743;-64
2022/01/31 09:05:48;;;;;;;13.63;5.10;;;4.60;99.90;;;;;;4922372;28;20290;-64
2022/01/31 09:08:15;;;;;;;9.07;5.60;;;4.60;99.90;;;;;;4940596;28;20235;-63
2022/01/31 09:10:43;;;;;;;8.07;5.20;;;4.60;99.90;;;;;;4918955;28;20198;-66
2022/01/31 09:13:13;;;;;;;9.50;5.03;;;4.60;99.90;;;;;;4924536;28;20223;-65
2022/01/31 09:15:40;;;;;;;6.73;4.10;;;4.60;99.90;;;;;;4923459;28;20346;-64
2022/01/31 09:18:08;;;;;;;7.03;4.23;;;4.60;99.90;;;;;;4924300;28;20204;-64
2022/01/31 09:20:37;;;;;;;9.60;4.30;;;4.60;99.90;;;;;;4909169;28;20642;-64
2022/01/31 09:23:07;;;;;;;9.10;4.60;;;4.60;99.90;;;;;;4926276;28;20200;-64
2022/01/31 09:25:37;;;;;;;8.60;4.10;;;4.60;99.90;;;;;;4922894;28;21061;-64
2022/01/31 09:28:04;;;;;;;8.73;3.57;;;4.60;99.90;;;;;;4925760;28;20199;-64
2022/01/31 09:30:31;;;;;;;5.53;2.97;;;4.60;99.90;;;;;;4911178;28;20303;-64
2022/01/31 09:32:58;;;;;;;6.60;2.70;;;4.60;99.90;;;;;;4927632;28;20302;-64
2022/01/31 09:35:25;;;;;;;9.43;3.10;;;4.70;99.90;;;;;;4928042;28;20218;-64
2022/01/31 09:37:54;;;;;;;6.80;3.13;;;4.60;99.90;;;;;;4926429;28;20208;-64
2022/01/31 09:40:24;;;;;;;6.60;2.70;;;4.70;1.00;;;;;;4944540;28;20318;-64
2022/01/31 09:48:44;;;;;;;6.63;2.50;;;4.80;99.90;;;;;;4960305;28;20616;-64
2022/01/31 09:51:10;;;;;;;5.97;2.57;;;4.80;99.90;;;;;;4907947;28;20223;-64
2022/01/31 09:54:00;;;;;;;5.37;2.13;;;4.80;99.90;;;;;;4911429;28;20215;-64
2022/01/31 09:56:31;;;;;;;4.93;2.40;;;4.80;1.00;;;;;;4923750;28;20203;-64
2022/01/31 09:58:58;;;;;;;5.43;2.10;;;4.90;1.00;;;;;;4921660;28;20506;-64
2022/01/31 10:01:46;;;;;;;5.53;1.97;;;4.90;1.00;;;;;;4927489;28;20200;-64
2022/01/31 10:04:22;;;;;;;5.07;2.10;;;4.90;1.00;;;;;;4945284;28;20253;-64
2022/01/31 10:06:54;;;;;;;4.33;2.17;;;5.00;99.90;;;;;;4918034;28;20677;-65
2022/01/31 10:09:27;;;;;;;6.57;2.93;;;5.00;99.90;;;;;;4941323;28;20300;-63
2022/01/31 10:16:24;;;;;;;5.50;2.20;;;5.00;99.90;;;;;;4945412;28;20650;-64
2022/01/31 10:17:37;;;;;;;3.63;2.10;;;5.00;99.90;;;;;;4948108;28;20572;-64
2022/01/31 10:20:28;;;;;;;6.30;2.33;;;4.90;99.90;;;;;;4947305;28;20199;-63
2022/01/31 10:23:05;;;;;;;4.40;2.37;;;5.10;1.00;;;;;;4921958;28;20211;-62
2022/01/31 10:25:33;;;;;;;7.10;2.27;;;5.30;1.00;;;;;;4943505;28;20226;-63
2022/01/31 10:28:19;;;;;;;6.10;2.57;;;5.40;99.90;;;;;;4913458;28;20557;-62
2022/01/31 10:30:52;;;;;;;6.60;2.23;;;5.30;99.90;;;;;;4944934;28;20553;-64
2022/01/31 10:33:21;;;;;;;6.23;2.17;;;5.20;99.90;;;;;;4913171;28;20256;-63
2022/01/31 10:35:51;;;;;;;6.30;2.77;;;5.20;99.90;;;;;;4941742;28;20219;-62
2022/01/31 10:38:32;;;;;;;4.53;1.97;;;5.10;99.90;;;;;;4925942;28;20199;-64
2022/01/31 10:52:05;;;;;;;6.60;1.90;;;5.20;1.00;;;;;;5010818;28;20217;-64
2022/01/31 10:57:21;;;;;;;4.47;1.73;;;5.10;99.90;;;;;;4945015;28;20195;-66
2022/01/31 10:59:51;;;;;;;3.43;1.80;;;5.20;99.90;;;;;;4939461;28;20276;-63
2022/01/31 11:02:23;;;;;;;6.40;1.90;;;5.30;99.90;;;;;;4929621;28;20219;-62
2022/01/31 11:04:52;;;;;;;5.30;1.67;;;5.50;99.90;;;;;;4936821;28;20710;-63
2022/01/31 11:07:21;;;;;;;6.47;2.00;;;5.40;99.90;;;;;;4931032;28;20239;-64
2022/01/31 11:09:50;;;;;;;5.90;1.70;;;5.40;99.90;;;;;;4995225;28;20203;-62
2022/01/31 11:12:27;;;;;;;8.77;1.70;;;5.60;1.00;;;;;;4916086;28;20268;-62
2022/01/31 11:14:58;;;;;;;4.40;1.63;;;5.60;1.00;;;;;;4948379;28;20243;-63
2022/01/31 11:17:27;;;;;;;3.57;1.50;;;5.60;99.90;;;;;;4990756;28;20269;-63
2022/01/31 11:20:00;;;;;;;4.67;1.60;;;5.60;1.00;;;;;;4933084;28;20226;-62
2022/01/31 11:22:37;;;;;;;10.30;2.43;;;5.60;1.00;;;;;;4951300;28;20297;-63
2022/01/31 11:25:18;;;;;;;5.77;2.80;;;5.60;1.00;;;;;;4930682;28;20223;-62
2022/01/31 11:27:52;;;;;;;10.20;2.10;;;5.60;1.00;;;;;;4932193;28;20737;-62
2022/01/31 11:30:22;;;;;;;3.73;1.97;;;5.70;1.00;;;;;;4930317;28;20839;-62
2022/01/31 11:32:49;;;;;;;6.00;1.80;;;5.80;47.80;;;;;;4952530;28;20594;-62
2022/01/31 11:35:17;;;;;;;7.90;2.27;;;5.80;1.00;;;;;;4946109;28;20215;-63
2022/01/31 11:37:43;;;;;;;6.30;1.77;;;5.80;1.00;;;;;;4995263;28;20226;-63
2022/01/31 11:40:13;;;;;;;9.00;2.70;;;5.90;1.00;;;;;;4947754;28;20550;-64
2022/01/31 11:42:46;;;;;;;8.50;3.40;;;6.10;1.00;;;;;;4949383;28;20298;-63
2022/01/31 11:45:31;;;;;;;9.07;3.13;;;6.10;99.90;;;;;;4931062;28;20238;-64
2022/01/31 11:48:03;;;;;;;7.43;2.87;;;6.10;1.00;;;;;;4917732;28;20253;-62
2022/01/31 11:50:31;;;;;;;8.57;4.40;;;6.00;1.00;;;;;;4933309;28;20231;-62
2022/01/31 11:53:00;;;;;;;15.07;7.67;;;6.00;26.20;;;;;;4937390;28;20207;-62
2022/01/31 11:55:38;;;;;;;5.63;2.37;;;6.00;99.90;;;;;;4933000;28;20219;-62
2022/01/31 11:58:17;;;;;;;6.97;2.83;;;6.00;99.90;;;;;;4947022;28;20191;-62
2022/01/31 12:00:47;;;;;;;10.80;4.10;;;6.10;99.90;;;;;;4961811;28;20594;-61
2022/01/31 12:03:16;;;;;;;11.50;3.10;;;6.50;99.90;;;;;;4946118;28;20257;-62
2022/01/31 12:05:44;;;;;;;8.07;3.23;;;7.20;1.00;;;;;;4933911;28;20199;-62
2022/01/31 12:08:15;;;;;;;5.77;2.53;;;7.30;1.00;;;;;;4921625;28;20288;-63
2022/01/31 12:11:02;;;;;;;9.07;3.53;;;7.60;1.00;;;;;;4948520;28;20190;-63
2022/01/31 12:13:44;;;;;;;9.40;3.73;;;7.40;1.00;;;;;;4917712;28;21185;-63
2022/01/31 12:19:29;;;;;;;4.73;2.30;;;7.20;1.00;;;;;;4948201;28;20200;-62
2022/01/31 12:22:00;;;;;;;9.80;2.30;;;7.40;1.00;;;;;;4930970;28;20191;-62
2022/01/31 12:24:45;;;;;;;7.83;2.50;;;7.30;99.90;;;;;;4948255;28;20695;-63
2022/01/31 12:27:15;;;;;;;6.57;2.20;;;7.10;99.90;;;;;;4946783;28;20270;-62
2022/01/31 12:29:43;;;;;;;4.03;1.70;;;6.90;99.90;;;;;;4932135;28;20229;-61
2022/01/31 12:32:12;;;;;;;3.83;1.50;;;6.80;1.00;;;;;;4955234;28;20199;-62
2022/01/31 12:34:49;;;;;;;4.00;1.43;;;6.80;99.90;;;;;;4934591;28;20380;-61
2022/01/31 12:37:26;;;;;;;4.70;2.17;;;6.80;99.90;;;;;;4950568;28;20708;-61
2022/01/31 12:40:04;;;;;;;6.70;2.70;;;6.70;1.00;;;;;;4950905;28;20298;-62
2022/01/31 12:45:40;;;;;;;3.50;1.83;;;6.50;1.00;;;;;;4948867;28;20203;-62
2022/01/31 12:48:22;;;;;;;4.57;2.60;;;6.40;1.00;;;;;;4952735;28;20207;-62
2022/01/31 12:50:49;;;;;;;4.63;2.27;;;6.40;50.40;;;;;;4948639;28;20922;-61
2022/01/31 12:56:29;;;;;;;5.80;2.40;;;6.80;99.90;;;;;;4947420;28;20199;-62
2022/01/31 12:59:11;;;;;;;4.70;2.83;;;6.90;1.00;;;;;;4948282;28;20274;-61
2022/01/31 13:01:41;;;;;;;8.03;3.37;;;7.10;1.00;;;;;;4922140;28;20210;-64
2022/01/31 13:04:29;;;;;;;9.43;6.37;;;7.70;1.00;;;;;;4929889;28;20211;-64
2022/01/31 13:06:59;;;;;;;9.53;3.50;;;8.40;99.90;;;;;;4915639;28;20237;-64
2022/01/31 13:09:47;;;;;;;8.53;3.97;;;8.80;1.00;;;;;;4946500;28;20206;-64
2022/01/31 13:12:17;;;;;;;8.93;3.60;;;8.70;1.00;;;;;;4951141;28;20476;-65
2022/01/31 13:14:51;;;;;;;11.77;2.50;;;8.30;1.00;;;;;;4940180;28;20297;-65
2022/01/31 13:17:26;;;;;;;3.57;1.67;;;8.20;1.00;;;;;;4933161;28;20355;-64
2022/01/31 13:19:59;;;;;;;5.23;1.90;;;7.80;1.00;;;;;;5009070;28;20191;-64
2022/01/31 13:22:32;;;;;;;4.20;1.73;;;7.70;78.10;;;;;;4934912;28;20192;-65
2022/01/31 13:25:06;;;;;;;9.73;1.90;;;7.50;51.70;;;;;;4934684;28;20558;-64
2022/01/31 13:27:55;;;;;;;6.07;1.63;;;7.30;99.90;;;;;;4953440;28;20398;-63
2022/01/31 13:30:25;;;;;;;8.83;2.17;;;7.20;99.90;;;;;;4932675;28;20297;-63
2022/01/31 13:32:53;;;;;;;7.70;2.33;;;7.00;99.90;;;;;;4920878;28;20234;-63
2022/01/31 13:35:26;;;;;;;8.77;2.30;;;6.90;99.90;;;;;;4953679;28;20294;-63
2022/01/31 13:38:01;;;;;;;8.93;2.57;;;6.90;99.90;;;;;;4932564;28;20223;-64
2022/01/31 13:40:34;;;;;;;8.90;1.80;;;6.90;1.00;;;;;;4931083;28;20186;-63
2022/01/31 13:43:25;;;;;;;10.77;2.53;;;6.80;1.00;;;;;;5008948;28;20214;-63
2022/01/31 13:46:11;;;;;;;7.57;2.37;;;6.70;1.00;;;;;;4928677;28;20230;-62
2022/01/31 13:51:29;;;;;;;3.37;2.33;;;6.60;1.00;;;;;;4927926;28;20299;-62